TimeCDT,TemperatureF,Dew PointF,Humidity,Sea Level PressureIn,VisibilityMPH,Wind Direction,Wind SpeedMPH,Gust SpeedMPH,PrecipitationIn,Events,Conditions,WindDirDegrees,DateUTC
12:53 AM,80.1,72.0,76,29.92,10.0,SE,9.2,-,N/A,,Clear,130,2013-06-21 05:53:00
1:53 AM,79.0,72.0,79,29.91,10.0,SE,9.2,-,N/A,,Clear,140,2013-06-21 06:53:00
2:53 AM,79.0,72.0,79,29.90,10.0,South,6.9,-,N/A,,Clear,170,2013-06-21 07:53:00
3:53 AM,79.0,71.1,77,29.89,10.0,SSE,9.2,-,N/A,,Clear,150,2013-06-21 08:53:00
4:53 AM,79.0,70.0,74,29.89,10.0,SSE,11.5,-,N/A,,Clear,150,2013-06-21 09:53:00
5:53 AM,78.1,70.0,76,29.89,10.0,South,8.1,-,N/A,,Clear,170,2013-06-21 10:53:00
6:53 AM,78.1,70.0,76,29.90,10.0,SSE,10.4,-,N/A,,Clear,160,2013-06-21 11:53:00
7:53 AM,79.0,70.0,74,29.91,10.0,SSE,10.4,-,N/A,,Clear,160,2013-06-21 12:53:00
8:53 AM,79.0,70.0,74,29.92,10.0,SSE,9.2,-,N/A,,Partly Cloudy,160,2013-06-21 13:53:00
9:53 AM,82.0,70.0,67,29.93,10.0,South,11.5,-,0.00,,Clear,180,2013-06-21 14:53:00
10:53 AM,81.0,70.0,69,29.92,10.0,South,6.9,-,N/A,,Clear,180,2013-06-21 15:53:00
11:53 AM,84.9,73.0,67,29.92,10.0,South,12.7,17.3,N/A,,Clear,170,2013-06-21 16:53:00
12:53 PM,91.0,73.0,55,29.90,10.0,South,17.3,23.0,N/A,,Clear,180,2013-06-21 17:53:00
1:53 PM,91.9,72.0,52,29.89,10.0,South,19.6,27.6,N/A,,Clear,180,2013-06-21 18:53:00
2:53 PM,91.9,71.1,50,29.88,10.0,South,16.1,24.2,N/A,,Clear,180,2013-06-21 19:53:00
3:53 PM,91.0,72.0,53,29.87,10.0,South,12.7,23.0,N/A,,Clear,170,2013-06-21 20:53:00
4:53 PM,91.0,71.1,52,29.86,10.0,SSE,13.8,-,N/A,,Clear,160,2013-06-21 21:53:00
5:53 PM,91.9,69.1,47,29.85,10.0,South,16.1,25.3,N/A,,Clear,180,2013-06-21 22:53:00
6:53 PM,91.0,69.1,48,29.85,10.0,South,12.7,23.0,N/A,,Clear,180,2013-06-21 23:53:00
7:53 PM,89.1,69.1,52,29.88,10.0,South,8.1,-,N/A,,Clear,170,2013-06-22 00:53:00
8:53 PM,86.0,70.0,59,29.88,10.0,South,10.4,-,N/A,,Clear,170,2013-06-22 01:53:00
9:53 PM,84.0,68.0,58,29.90,10.0,SSE,6.9,-,N/A,,Clear,160,2013-06-22 02:53:00
10:53 PM,82.9,66.9,58,29.89,10.0,SSW,8.1,-,N/A,,Clear,210,2013-06-22 03:53:00
11:53 PM,81.0,66.0,60,29.92,10.0,South,5.8,-,N/A,,Clear,170,2013-06-22 04:53:00